createdAt,value
2023-04-09T00:00:32.102Z,11.23
2023-04-09T00:03:00.246Z,9.17
2023-04-09T00:05:28.253Z,9.30
2023-04-09T00:07:56.246Z,9.73
2023-04-09T00:10:24.361Z,10.90
2023-04-09T00:12:53.708Z,7.60
2023-04-09T00:15:30.496Z,9.03
2023-04-09T00:17:59.901Z,10.40
2023-04-09T00:20:27.981Z,9.90
2023-04-09T00:22:56.493Z,9.73
2023-04-09T00:25:24.661Z,10.80
2023-04-09T00:27:54.103Z,9.10
2023-04-09T00:30:22.550Z,11.00
2023-04-09T00:32:50.597Z,9.63
2023-04-09T00:35:18.553Z,8.60
2023-04-09T00:37:46.448Z,9.27
2023-04-09T00:40:15.037Z,8.77
2023-04-09T00:42:43.029Z,8.30
2023-04-09T00:45:12.767Z,9.53
2023-04-09T00:47:40.773Z,8.83
2023-04-09T00:50:11.712Z,9.47
2023-04-09T00:52:40.008Z,8.50
2023-04-09T00:55:09.078Z,10.43
2023-04-09T00:57:37.549Z,9.40
2023-04-09T01:00:07.794Z,10.17
2023-04-09T01:02:37.457Z,12.97
2023-04-09T01:05:06.193Z,11.07
2023-04-09T01:07:59.823Z,9.43
2023-04-09T01:10:36.964Z,11.77
2023-04-09T01:13:12.904Z,12.30
2023-04-09T01:15:45.536Z,11.53
2023-04-09T01:18:20.672Z,9.53
2023-04-09T01:20:56.598Z,8.83
2023-04-09T01:23:36.062Z,12.37
2023-04-09T01:26:10.219Z,11.50
2023-04-09T01:28:45.864Z,13.93
2023-04-09T01:31:15.888Z,10.30
2023-04-09T01:33:44.488Z,10.03
2023-04-09T01:36:13.367Z,7.97
2023-04-09T01:38:43.756Z,9.90
2023-04-09T01:41:15.924Z,10.10
2023-04-09T01:43:46.706Z,11.50
2023-04-09T01:46:15.406Z,10.37
2023-04-09T01:48:45.959Z,8.10
2023-04-09T01:51:14.921Z,11.47
2023-04-09T01:53:43.258Z,9.33
2023-04-09T01:56:11.781Z,10.20
2023-04-09T01:58:40.915Z,9.07
2023-04-09T02:01:13.928Z,9.60
2023-04-09T02:03:48.111Z,9.20
2023-04-09T02:06:20.777Z,10.83
2023-04-09T02:08:50.057Z,12.13
2023-04-09T02:11:18.290Z,10.77
2023-04-09T02:13:47.718Z,15.63
2023-04-09T02:16:18.350Z,11.93
2023-04-09T02:18:46.345Z,11.17
2023-04-09T02:21:14.321Z,10.33
2023-04-09T02:23:42.369Z,10.40
2023-04-09T02:26:10.364Z,10.93
2023-04-09T02:28:38.271Z,9.80
2023-04-09T02:31:06.340Z,10.17
2023-04-09T02:33:35.791Z,10.83
2023-04-09T02:36:03.857Z,14.53
2023-04-09T02:38:32.389Z,10.67
2023-04-09T02:41:00.454Z,11.40
2023-04-09T02:43:28.348Z,13.10
2023-04-09T02:45:56.288Z,10.00
2023-04-09T02:48:24.226Z,12.10
2023-04-09T02:50:53.639Z,15.63
2023-04-09T02:53:22.474Z,13.83
2023-04-09T02:55:50.602Z,14.90
2023-04-09T02:58:18.538Z,13.50
2023-04-09T03:00:46.500Z,8.43
2023-04-09T03:03:14.613Z,15.10
2023-04-09T03:05:42.823Z,12.47
2023-04-09T03:08:12.126Z,10.30
2023-04-09T03:10:40.033Z,11.77
2023-04-09T03:13:07.938Z,14.17
2023-04-09T03:15:36.162Z,15.83
2023-04-09T03:18:04.325Z,10.90
2023-04-09T03:20:32.587Z,11.47
2023-04-09T03:23:00.583Z,13.70
2023-04-09T03:25:29.925Z,12.10
2023-04-09T03:27:57.879Z,18.90
2023-04-09T03:30:25.793Z,10.93
2023-04-09T03:32:53.720Z,12.00
2023-04-09T03:35:21.931Z,12.00
2023-04-09T03:37:50.027Z,12.93
2023-04-09T03:40:18.071Z,10.07
2023-04-09T03:42:47.414Z,14.90
2023-04-09T03:45:15.521Z,11.73
2023-04-09T03:47:43.449Z,13.60
2023-04-09T03:50:11.886Z,10.83
2023-04-09T03:52:39.784Z,9.47
2023-04-09T03:55:08.931Z,10.03
2023-04-09T03:57:36.814Z,10.23
2023-04-09T04:00:07.529Z,12.93
2023-04-09T04:02:35.584Z,12.80
2023-04-09T04:05:03.673Z,13.40
2023-04-09T04:07:31.578Z,12.40
2023-04-09T04:09:59.479Z,9.07
2023-04-09T04:12:27.372Z,11.23
2023-04-09T04:14:55.286Z,11.53
2023-04-09T04:17:24.526Z,11.20
2023-04-09T04:19:52.781Z,11.50
2023-04-09T04:22:20.656Z,13.10
2023-04-09T04:24:48.526Z,11.33
2023-04-09T04:27:16.481Z,12.50
2023-04-09T04:29:44.475Z,11.30
2023-04-09T04:32:12.465Z,10.90
2023-04-09T04:34:41.739Z,11.47
2023-04-09T04:37:09.735Z,11.97
2023-04-09T04:39:37.682Z,10.00
2023-04-09T04:42:06.087Z,10.70
2023-04-09T04:44:34.247Z,10.70
2023-04-09T04:47:02.209Z,15.47
2023-04-09T04:49:30.378Z,10.90
2023-04-09T04:51:59.597Z,16.30
2023-04-09T04:54:27.436Z,10.80
2023-04-09T04:56:56.174Z,13.23
2023-04-09T04:59:24.088Z,14.13
2023-04-09T05:01:52.090Z,10.10
2023-04-09T05:04:20.017Z,9.20
2023-04-09T05:06:47.878Z,9.63
2023-04-09T05:09:17.274Z,7.33
2023-04-09T05:11:45.155Z,9.63
2023-04-09T05:14:13.311Z,9.80
2023-04-09T05:16:41.560Z,9.40
2023-04-09T05:19:09.598Z,7.40
2023-04-09T05:21:37.442Z,7.27
2023-04-09T05:24:05.492Z,7.50
2023-04-09T05:26:34.706Z,6.90
2023-04-09T05:29:02.596Z,6.37
2023-04-09T05:31:30.481Z,6.20
2023-04-09T05:33:58.347Z,6.30
2023-04-09T05:36:26.237Z,6.40
2023-04-09T05:38:54.333Z,6.47
2023-04-09T05:41:22.558Z,7.90
2023-04-09T05:43:51.890Z,8.93
2023-04-09T05:46:20.005Z,7.83
2023-04-09T05:48:47.947Z,7.77
2023-04-09T05:51:16.530Z,9.00
2023-04-09T05:53:44.727Z,6.40
2023-04-09T05:56:16.596Z,9.07
2023-04-09T05:58:44.474Z,7.20
2023-04-09T06:01:13.917Z,9.33
2023-04-09T06:03:42.141Z,7.73
2023-04-09T06:06:13.788Z,8.23
2023-04-09T06:08:41.664Z,8.60
2023-04-09T06:11:10.734Z,10.38
2023-04-09T06:13:38.756Z,9.98
2023-04-09T06:16:07.330Z,8.55
2023-04-09T06:18:36.693Z,9.70
2023-04-09T06:21:05.004Z,12.65
2023-04-09T06:23:33.971Z,12.80
2023-04-09T06:26:02.035Z,12.40
2023-04-09T06:28:31.517Z,10.60
2023-04-09T06:30:59.832Z,11.23
2023-04-09T06:33:27.819Z,8.60
2023-04-09T06:35:57.294Z,10.50
2023-04-09T06:38:25.311Z,9.40
2023-04-09T06:40:53.468Z,11.05
2023-04-09T06:43:21.572Z,10.68
2023-04-09T06:45:49.492Z,9.38
2023-04-09T06:48:17.336Z,10.52
2023-04-09T06:50:45.901Z,10.50
2023-04-09T06:53:16.376Z,12.65
2023-04-09T06:55:44.349Z,12.13
2023-04-09T06:58:12.231Z,10.88
2023-04-09T07:00:40.297Z,13.45
2023-04-09T07:03:09.250Z,10.73
2023-04-09T07:05:37.479Z,9.65
2023-04-09T07:08:05.579Z,11.23
2023-04-09T07:10:34.871Z,10.85
2023-04-09T07:13:03.184Z,14.85
2023-04-09T07:15:31.244Z,14.15
2023-04-09T07:17:59.115Z,13.90
2023-04-09T07:20:27.148Z,11.55
2023-04-09T07:22:54.992Z,13.95
2023-04-09T07:25:22.901Z,12.45
2023-04-09T07:27:52.230Z,13.13
2023-04-09T07:30:20.255Z,11.48
2023-04-09T07:32:48.243Z,12.52
2023-04-09T07:35:16.099Z,12.32
2023-04-09T07:37:43.984Z,11.43
2023-04-09T07:40:12.405Z,11.70
2023-04-09T07:42:40.641Z,12.63
2023-04-09T07:45:10.619Z,14.80
2023-04-09T07:47:39.485Z,12.48
2023-04-09T07:50:09.014Z,12.27
2023-04-09T07:52:36.915Z,12.90
2023-04-09T07:55:05.459Z,14.80
2023-04-09T07:57:33.588Z,13.05
2023-04-09T08:00:01.560Z,13.63
2023-04-09T08:02:31.273Z,11.88
2023-04-09T08:04:59.528Z,11.82
2023-04-09T08:07:27.573Z,12.32
2023-04-09T08:09:55.524Z,11.95
2023-04-09T08:12:23.435Z,11.35
2023-04-09T08:14:51.319Z,12.40
2023-04-09T08:17:19.250Z,11.30
2023-04-09T08:19:49.559Z,12.07
2023-04-09T08:22:17.456Z,11.85
2023-04-09T08:24:45.589Z,12.27
2023-04-09T08:27:13.612Z,11.38
2023-04-09T08:29:42.601Z,13.02
2023-04-09T08:32:10.618Z,11.48
2023-04-09T08:34:38.605Z,10.85
2023-04-09T08:37:08.058Z,12.00
2023-04-09T08:39:36.307Z,10.80
2023-04-09T08:42:07.586Z,12.23
2023-04-09T08:44:35.466Z,12.63
2023-04-09T08:47:04.359Z,10.75
2023-04-09T08:49:32.278Z,10.60
2023-04-09T08:52:01.080Z,11.02
2023-04-09T08:54:30.435Z,10.93
2023-04-09T08:56:58.809Z,11.40
2023-04-09T08:59:27.264Z,10.93
2023-04-09T09:02:08.836Z,11.02
2023-04-09T09:04:46.416Z,11.85
2023-04-09T09:07:14.700Z,11.60
2023-04-09T09:09:54.937Z,12.82
2023-04-09T09:12:37.190Z,13.48
2023-04-09T09:15:05.657Z,10.38
2023-04-09T09:17:33.902Z,12.50
2023-04-09T09:20:20.653Z,12.10
2023-04-09T09:22:54.586Z,11.43
2023-04-09T09:25:26.238Z,10.43
2023-04-09T09:27:55.418Z,9.55
2023-04-09T09:30:24.679Z,11.32
2023-04-09T09:33:05.389Z,11.00
2023-04-09T09:35:47.223Z,12.10
2023-04-09T09:38:16.041Z,11.60
2023-04-09T09:40:45.826Z,12.23
2023-04-09T09:43:14.813Z,13.48
2023-04-09T09:45:43.830Z,13.40
2023-04-09T09:48:12.852Z,9.90
2023-04-09T09:50:42.792Z,10.73
2023-04-09T09:53:12.655Z,11.35
2023-04-09T09:55:41.764Z,11.27
2023-04-09T09:58:22.250Z,11.40
2023-04-09T10:00:53.780Z,10.33
2023-04-09T10:03:23.861Z,11.97
2023-04-09T10:05:53.566Z,13.13
2023-04-09T10:08:23.418Z,12.02
2023-04-09T10:10:53.134Z,12.40
2023-04-09T10:13:32.409Z,12.70
2023-04-09T10:16:01.754Z,9.93
2023-04-09T10:18:39.032Z,11.75
2023-04-09T10:21:13.535Z,10.80
2023-04-09T10:23:42.996Z,9.30
2023-04-09T10:26:11.618Z,10.27
2023-04-09T10:28:41.134Z,8.60
2023-04-09T10:31:09.338Z,11.70
2023-04-09T10:33:38.987Z,10.45
2023-04-09T10:36:12.226Z,9.77
2023-04-09T10:38:42.843Z,10.43
2023-04-09T10:41:17.214Z,11.93
2023-04-09T10:43:48.935Z,12.27
2023-04-09T10:46:32.489Z,12.20
2023-04-09T10:49:09.927Z,11.27
2023-04-09T10:51:38.814Z,9.10
2023-04-09T10:54:07.152Z,10.33
2023-04-09T10:56:35.189Z,9.53
2023-04-09T10:59:04.495Z,12.10
2023-04-09T11:01:32.519Z,7.10
2023-04-09T11:04:10.808Z,6.47
2023-04-09T11:06:42.371Z,6.90
2023-04-09T11:09:10.296Z,6.87
2023-04-09T11:11:38.668Z,8.87
2023-04-09T11:14:07.936Z,6.47
2023-04-09T11:16:36.776Z,6.77
2023-04-09T11:19:05.760Z,7.00
2023-04-09T11:21:34.924Z,9.03
2023-04-09T11:24:03.697Z,5.50
2023-04-09T11:26:37.372Z,7.33
2023-04-09T11:29:08.312Z,5.27
2023-04-09T11:31:37.124Z,6.30
2023-04-09T11:34:05.082Z,5.00
2023-04-09T11:36:37.944Z,5.50
2023-04-09T11:39:06.578Z,6.47
2023-04-09T11:41:35.477Z,4.93
2023-04-09T11:44:04.898Z,5.37
2023-04-09T11:46:34.367Z,6.57
2023-04-09T11:49:04.342Z,5.63
2023-04-09T11:51:32.804Z,6.10
2023-04-09T11:54:03.535Z,6.27
2023-04-09T11:56:32.535Z,6.80
2023-04-09T11:59:00.731Z,6.90
2023-04-09T12:01:32.921Z,5.33
2023-04-09T12:04:02.852Z,5.80
2023-04-09T12:06:31.881Z,6.90
2023-04-09T12:09:00.904Z,6.10
2023-04-09T12:11:30.047Z,6.97
2023-04-09T12:14:01.281Z,6.10
2023-04-09T12:16:31.563Z,6.60
2023-04-09T12:19:03.681Z,5.87
2023-04-09T12:21:47.266Z,6.00
2023-04-09T12:24:15.556Z,6.53
2023-04-09T12:26:43.587Z,6.60
2023-04-09T12:29:11.600Z,5.80
2023-04-09T12:31:39.570Z,5.83
2023-04-09T12:34:09.141Z,5.67
2023-04-09T12:36:37.177Z,5.57
2023-04-09T12:39:05.063Z,5.50
2023-04-09T12:41:33.015Z,5.73
2023-04-09T12:44:00.892Z,6.30
2023-04-09T12:46:28.922Z,6.33
2023-04-09T12:48:56.933Z,6.13
2023-04-09T12:51:26.436Z,6.70
2023-04-09T12:53:54.625Z,5.37
2023-04-09T12:56:22.835Z,6.00
2023-04-09T12:58:51.668Z,7.60
2023-04-09T13:01:19.872Z,5.47
2023-04-09T13:03:48.119Z,7.57
2023-04-09T13:06:16.370Z,6.67
2023-04-09T13:08:45.886Z,6.90
2023-04-09T13:11:14.229Z,7.07
2023-04-09T13:13:42.751Z,5.73
2023-04-09T13:16:10.790Z,5.10
2023-04-09T13:18:38.677Z,7.07
2023-04-09T13:21:09.815Z,6.57
2023-04-09T13:23:37.750Z,9.20
2023-04-09T13:26:07.634Z,5.57
2023-04-09T13:28:36.457Z,8.40
2023-04-09T13:31:04.573Z,6.77
2023-04-09T13:33:32.604Z,6.03
2023-04-09T13:36:00.525Z,5.87
2023-04-09T13:38:34.459Z,6.20
2023-04-09T13:41:02.523Z,6.80
2023-04-09T13:43:32.003Z,7.27
2023-04-09T13:45:59.979Z,6.53
2023-04-09T13:48:27.893Z,8.97
2023-04-09T13:50:55.786Z,8.13
2023-04-09T13:53:25.096Z,8.70
2023-04-09T13:55:53.561Z,6.17
2023-04-09T13:58:22.551Z,5.60
2023-04-09T14:00:52.291Z,8.77
2023-04-09T14:03:20.532Z,10.60
2023-04-09T14:05:49.225Z,6.20
2023-04-09T14:08:17.477Z,6.50
2023-04-09T14:10:45.410Z,8.23
2023-04-09T14:13:13.627Z,6.27
2023-04-09T14:15:41.782Z,9.77
2023-04-09T14:18:11.692Z,10.07
2023-04-09T14:20:39.634Z,7.20
2023-04-09T14:23:07.511Z,8.40
2023-04-09T14:25:35.586Z,9.80
2023-04-09T14:28:03.526Z,6.37
2023-04-09T14:30:31.835Z,7.50
2023-04-09T14:32:59.919Z,8.53
2023-04-09T14:35:29.785Z,9.00
2023-04-09T14:38:01.808Z,8.83
2023-04-09T14:40:30.509Z,7.43
2023-04-09T14:43:03.872Z,7.17
2023-04-09T14:45:33.111Z,7.97
2023-04-09T14:48:02.465Z,6.10
2023-04-09T14:50:34.365Z,6.00
2023-04-09T14:53:03.581Z,5.70
2023-04-09T14:55:31.860Z,6.80
2023-04-09T14:58:03.752Z,6.17
2023-04-09T15:00:33.726Z,6.90
2023-04-09T15:03:01.964Z,6.20
2023-04-09T15:05:31.723Z,7.10
2023-04-09T15:07:59.586Z,6.33
2023-04-09T15:10:27.859Z,7.77
2023-04-09T15:12:56.982Z,7.83
2023-04-09T15:15:25.056Z,7.30
2023-04-09T15:17:53.018Z,7.40
2023-04-09T15:20:21.214Z,8.33
2023-04-09T15:22:50.618Z,6.87
2023-04-09T15:25:18.588Z,6.63
2023-04-09T15:27:46.919Z,6.83
2023-04-09T15:30:15.107Z,7.67
2023-04-09T15:32:43.378Z,7.20
2023-04-09T15:35:13.641Z,8.30
2023-04-09T15:37:41.732Z,9.27
2023-04-09T15:40:12.304Z,7.30
2023-04-09T15:42:40.458Z,6.90
2023-04-09T15:45:09.284Z,7.03
2023-04-09T15:47:37.358Z,7.60
2023-04-09T15:50:05.955Z,6.07
2023-04-09T15:52:34.003Z,5.90
2023-04-09T15:55:02.524Z,6.63
2023-04-09T15:57:32.343Z,6.30
2023-04-09T16:00:00.585Z,8.33
2023-04-09T16:02:28.642Z,6.17
2023-04-09T16:04:56.622Z,6.00
2023-04-09T16:07:24.707Z,5.80
2023-04-09T16:09:52.602Z,8.00
2023-04-09T16:12:20.538Z,6.10
2023-04-09T16:14:49.801Z,7.80
2023-04-09T16:17:17.757Z,7.40
2023-04-09T16:19:45.637Z,6.07
2023-04-09T16:22:13.628Z,6.50
2023-04-09T16:24:41.749Z,5.97
2023-04-09T16:27:09.638Z,6.40
2023-04-09T16:29:37.545Z,7.70
2023-04-09T16:32:07.030Z,7.53
2023-04-09T16:34:34.927Z,5.80
2023-04-09T16:37:02.839Z,7.90
2023-04-09T16:39:30.874Z,7.53
2023-04-09T16:41:59.159Z,7.87
2023-04-09T16:44:27.182Z,7.43
2023-04-09T16:46:56.441Z,6.77
2023-04-09T16:49:25.821Z,9.10
2023-04-09T16:51:54.120Z,7.03
2023-04-09T16:54:22.048Z,10.43
2023-04-09T16:56:49.919Z,8.30
2023-04-09T16:59:18.557Z,8.87
2023-04-09T17:01:46.629Z,8.53
2023-04-09T17:04:14.685Z,6.80
2023-04-09T17:06:44.192Z,7.10
2023-04-09T17:09:12.083Z,5.97
2023-04-09T17:11:40.046Z,6.60
2023-04-09T17:14:07.910Z,7.20
2023-04-09T17:16:36.338Z,7.10
2023-04-09T17:19:04.336Z,7.37
2023-04-09T17:21:32.333Z,7.93
2023-04-09T17:24:02.795Z,8.97
2023-04-09T17:26:34.370Z,7.13
2023-04-09T17:29:02.933Z,7.53
2023-04-09T17:31:30.960Z,8.93
2023-04-09T17:33:58.905Z,9.67
2023-04-09T17:36:27.802Z,8.00
2023-04-09T17:38:56.715Z,7.60
2023-04-09T17:41:26.163Z,8.43
2023-04-09T17:43:56.277Z,7.90
2023-04-09T17:46:24.472Z,6.87
2023-04-09T17:48:53.394Z,10.40
2023-04-09T17:51:21.581Z,9.67
2023-04-09T17:53:49.519Z,9.10
2023-04-09T17:56:19.063Z,10.07
2023-04-09T17:58:48.347Z,7.90
2023-04-09T18:01:16.380Z,10.47
2023-04-09T18:03:46.036Z,12.00
2023-04-09T18:06:15.328Z,7.83
2023-04-09T18:08:43.435Z,9.60
2023-04-09T18:11:13.131Z,7.03
2023-04-09T18:13:41.746Z,7.20
2023-04-09T18:16:12.649Z,8.67
2023-04-09T18:18:41.317Z,7.17
2023-04-09T18:21:09.329Z,7.07
2023-04-09T18:23:37.234Z,8.90
2023-04-09T18:26:05.430Z,10.53
2023-04-09T18:28:34.308Z,8.70
2023-04-09T18:31:02.537Z,9.40
2023-04-09T18:33:32.001Z,7.70
2023-04-09T18:36:01.688Z,10.60
2023-04-09T18:38:30.445Z,10.13
2023-04-09T18:40:58.506Z,7.90
2023-04-09T18:43:26.581Z,8.97
2023-04-09T18:45:56.178Z,17.13
2023-04-09T18:48:24.225Z,8.60
2023-04-09T18:50:53.506Z,11.33
2023-04-09T18:53:21.509Z,7.53
2023-04-09T18:55:49.556Z,8.20
2023-04-09T18:58:17.711Z,10.30
2023-04-09T19:00:45.631Z,10.90
2023-04-09T19:03:13.696Z,11.13
2023-04-09T19:05:42.339Z,12.73
2023-04-09T19:08:11.864Z,7.17
2023-04-09T19:10:39.944Z,7.70
2023-04-09T19:13:08.106Z,8.37
2023-04-09T19:15:36.289Z,8.50
2023-04-09T19:18:04.244Z,10.40
2023-04-09T19:20:32.141Z,11.20
2023-04-09T19:23:00.174Z,10.63
2023-04-09T19:25:29.863Z,10.20
2023-04-09T19:27:57.867Z,9.43
2023-04-09T19:30:26.244Z,12.10
2023-04-09T19:32:54.520Z,10.57
2023-04-09T19:35:22.834Z,11.53
2023-04-09T19:37:50.795Z,15.10
2023-04-09T19:40:18.972Z,9.63
2023-04-09T19:42:48.291Z,10.67
2023-04-09T19:45:16.556Z,9.03
2023-04-09T19:47:44.616Z,11.27
2023-04-09T19:50:12.853Z,10.20
2023-04-09T19:52:41.994Z,9.27
2023-04-09T19:55:11.100Z,9.40
2023-04-09T19:57:39.000Z,11.90
2023-04-09T20:00:09.708Z,10.70
2023-04-09T20:02:39.462Z,13.70
2023-04-09T20:05:08.240Z,10.53
2023-04-09T20:07:36.306Z,11.53
2023-04-09T20:10:04.740Z,9.70
2023-04-09T20:12:32.737Z,14.30
2023-04-09T20:15:02.727Z,11.53
2023-04-09T20:17:32.143Z,11.10
2023-04-09T20:20:00.093Z,11.83
2023-04-09T20:22:29.558Z,12.10
2023-04-09T20:24:58.090Z,11.80
2023-04-09T20:27:26.116Z,11.30
2023-04-09T20:29:54.232Z,14.43
2023-04-09T20:32:22.712Z,9.90
2023-04-09T20:34:52.282Z,12.30
2023-04-09T20:37:20.382Z,12.67
2023-04-09T20:39:48.344Z,10.80
2023-04-09T20:42:16.211Z,13.37
2023-04-09T20:44:44.839Z,12.80
2023-04-09T20:47:13.083Z,10.77
2023-04-09T20:49:42.449Z,14.30
2023-04-09T20:52:11.736Z,12.27
2023-04-09T20:54:40.375Z,13.90
2023-04-09T20:57:08.315Z,12.70
2023-04-09T20:59:36.305Z,17.73
2023-04-09T21:02:04.388Z,17.07
2023-04-09T21:04:32.517Z,15.93
2023-04-09T21:07:00.422Z,18.47
2023-04-09T21:09:31.516Z,15.10
2023-04-09T21:11:59.437Z,15.10
2023-04-09T21:14:27.405Z,16.13
2023-04-09T21:16:55.799Z,15.27
2023-04-09T21:19:23.963Z,15.10
2023-04-09T21:21:51.987Z,12.90
2023-04-09T21:24:19.919Z,21.33
2023-04-09T21:26:52.116Z,15.10
2023-04-09T21:29:21.475Z,15.80
2023-04-09T21:31:49.610Z,13.20
2023-04-09T21:34:17.606Z,19.77
2023-04-09T21:36:46.323Z,14.20
2023-04-09T21:39:14.291Z,14.40
2023-04-09T21:41:42.220Z,13.77
2023-04-09T21:44:11.446Z,13.60
2023-04-09T21:46:40.775Z,15.53
2023-04-09T21:49:08.992Z,15.80
2023-04-09T21:51:37.544Z,16.77
2023-04-09T21:54:06.138Z,14.90
2023-04-09T21:56:34.867Z,17.13
2023-04-09T21:59:03.003Z,14.93
2023-04-09T22:01:34.562Z,16.83
2023-04-09T22:04:03.629Z,16.50
2023-04-09T22:06:32.302Z,14.97
2023-04-09T22:09:00.579Z,15.73
2023-04-09T22:11:29.251Z,15.30
2023-04-09T22:13:57.907Z,13.67
2023-04-09T22:16:26.527Z,14.73
2023-04-09T22:18:56.163Z,14.50
2023-04-09T22:21:24.446Z,14.03
2023-04-09T22:23:52.314Z,21.10
2023-04-09T22:26:21.569Z,17.70
2023-04-09T22:28:50.333Z,14.50
2023-04-09T22:31:18.535Z,14.47
2023-04-09T22:33:46.485Z,14.07
2023-04-09T22:36:15.842Z,13.27
2023-04-09T22:38:43.768Z,14.37
2023-04-09T22:41:11.714Z,15.83
2023-04-09T22:43:39.692Z,14.40
2023-04-09T22:46:08.127Z,11.77
2023-04-09T22:48:43.820Z,13.70
2023-04-09T22:51:12.800Z,15.23
2023-04-09T22:53:42.343Z,15.60
2023-04-09T22:56:10.495Z,16.20
2023-04-09T22:58:38.876Z,16.73
2023-04-09T23:01:07.762Z,17.40
2023-04-09T23:03:36.640Z,18.70
2023-04-09T23:06:04.968Z,16.13
2023-04-09T23:08:32.934Z,15.27
2023-04-09T23:11:02.237Z,15.30
2023-04-09T23:13:30.473Z,17.00
2023-04-09T23:15:58.412Z,18.00
2023-04-09T23:18:26.450Z,15.50
2023-04-09T23:20:54.578Z,15.93
2023-04-09T23:23:22.463Z,16.43
2023-04-09T23:25:50.407Z,17.73
2023-04-09T23:28:19.660Z,14.53
2023-04-09T23:30:47.598Z,15.80
2023-04-09T23:33:15.513Z,17.73
2023-04-09T23:35:43.581Z,21.13
2023-04-09T23:38:11.757Z,15.63
2023-04-09T23:40:39.762Z,15.67
2023-04-09T23:43:07.714Z,14.30
2023-04-09T23:45:37.024Z,16.00
2023-04-09T23:48:06.228Z,14.17
2023-04-09T23:50:34.325Z,17.40
2023-04-09T23:53:03.720Z,16.23
2023-04-09T23:55:33.327Z,15.27
2023-04-09T23:58:01.660Z,17.50
